Time;durP1;ratioP1;P1;durP2;ratioP2;P2;SDS_P1;SDS_P2;PMS_P1;PMS_P2;Temp;Humidity;BMP_temperature;BMP_pressure;BME280_temperature;BME280_humidity;BME280_pressure;Samples;Min_cycle;Max_cycle;Signal;HPM_P1;HPM_P2
2022/01/20 00:03:31;;;;;;;;;28.00;24.00;;;;;9.36;68.68;102723.06;5060590;28;45389;-80
2022/01/20 00:06:49;;;;;;;;;35.75;30.75;;;;;9.35;68.68;102723.97;5062204;28;45411;-80
2022/01/20 00:27:53;;;;;;;;;27.00;23.75;;;;;9.06;69.01;102743.06;5050208;28;45522;-81
2022/01/20 00:33:16;;;;;;;;;32.00;25.50;;;;;9.03;68.76;102732.53;5061344;28;45383;-84
2022/01/20 00:38:13;;;;;;;;;34.50;29.50;;;;;9.03;69.08;102714.19;5061197;28;45470;-84
2022/01/20 00:40:38;;;;;;;;;34.00;26.00;;;;;9.06;68.89;102722.94;5061459;28;45393;-85
2022/01/20 00:43:04;;;;;;;;;38.75;31.75;;;;;9.05;68.71;102712.44;5061267;28;46401;-82
2022/01/20 00:45:29;;;;;;;;;29.25;25.75;;;;;9.06;68.94;102714.22;5061451;28;45243;-82
2022/01/20 00:47:54;;;;;;;;;29.50;27.00;;;;;9.04;68.83;102714.19;5060955;28;45459;-82
2022/01/20 00:50:20;;;;;;;;;25.00;25.00;;;;;9.03;68.80;102711.56;5061209;28;45280;-81
2022/01/20 00:52:45;;;;;;;;;32.00;30.25;;;;;9.03;68.63;102714.19;5061510;28;45515;-81
2022/01/20 00:55:11;;;;;;;;;52.50;42.75;;;;;9.03;68.84;102716.81;5060906;28;45467;-82
2022/01/20 00:57:36;;;;;;;;;40.50;34.25;;;;;9.00;68.88;102710.69;5061231;28;45485;-82
2022/01/20 01:00:06;;;;;;;;;46.00;38.00;;;;;8.97;68.78;102722.88;5060906;28;45514;-84
2022/01/20 01:02:33;;;;;;;;;34.75;32.00;;;;;8.97;68.68;102726.38;5061368;28;45400;-84
2022/01/20 01:04:58;;;;;;;;;48.75;37.50;;;;;8.96;68.41;102714.13;5060690;28;45249;-84
2022/01/20 01:10:06;;;;;;;;;43.50;36.25;;;;;8.95;68.81;102736.00;5061074;28;45310;-80
2022/01/20 01:12:56;;;;;;;;;46.00;37.75;;;;;8.91;68.33;102731.63;5058216;28;45519;-82
2022/01/20 01:15:27;;;;;;;;;49.00;40.25;;;;;8.92;68.25;102729.84;5060008;28;45907;-80
2022/01/20 01:23:21;;;;;;;;;48.25;39.00;;;;;8.87;68.03;102745.56;5060780;28;45764;-81
2022/01/20 01:25:47;;;;;;;;;45.75;38.25;;;;;8.79;68.18;102737.63;5060948;28;45228;-83
2022/01/20 01:28:12;;;;;;;;;51.00;40.75;;;;;8.76;68.08;102743.75;5060408;28;45216;-83
2022/01/20 01:33:22;;;;;;;;;42.75;35.00;;;;;8.74;68.09;102773.47;5060517;28;45275;-83
2022/01/20 01:35:55;;;;;;;;;37.50;33.75;;;;;8.67;68.22;102772.50;5060632;28;45261;-83
2022/01/20 01:38:35;;;;;;;;;40.75;34.75;;;;;8.66;67.50;102762.91;5060449;28;45421;-85
2022/01/20 01:41:05;;;;;;;;;37.75;32.00;;;;;8.67;68.18;102767.25;5060630;28;45521;-86
2022/01/20 01:43:32;;;;;;;;;33.00;27.50;;;;;8.64;67.66;102773.34;5060013;28;46302;-86
2022/01/20 01:46:00;;;;;;;;;38.75;31.00;;;;;8.60;67.63;102771.59;5060572;28;45793;-85
2022/01/20 01:48:25;;;;;;;;;31.75;24.25;;;;;8.60;67.72;102775.94;5059642;28;45418;-85
2022/01/20 01:50:51;;;;;;;;;27.50;23.00;;;;;8.60;67.84;102775.94;5060388;28;45335;-85
2022/01/20 01:53:17;;;;;;;;;28.25;25.50;;;;;8.57;67.47;102776.75;5060200;28;46124;-81
2022/01/20 01:55:42;;;;;;;;;18.00;18.00;;;;;8.57;67.46;102782.00;5060109;28;45318;-83
2022/01/20 01:58:08;;;;;;;;;27.50;21.25;;;;;8.56;67.43;102793.38;5060073;28;45406;-82
2022/01/20 02:00:34;;;;;;;;;22.75;19.25;;;;;8.52;67.64;102800.31;5060505;28;45429;-83
2022/01/20 02:03:00;;;;;;;;;22.75;17.75;;;;;8.51;66.99;102809.06;5059984;28;45397;-82
2022/01/20 02:05:26;;;;;;;;;19.00;16.25;;;;;8.51;67.04;102819.53;5060350;28;45379;-82
2022/01/20 02:18:50;;;;;;;;;13.75;11.50;;;;;8.34;67.05;102819.38;5059551;28;45463;-82
2022/01/20 02:21:16;;;;;;;;;17.75;15.25;;;;;8.33;66.97;102825.47;5060025;28;45458;-82
2022/01/20 02:23:42;;;;;;;;;19.50;12.75;;;;;8.32;67.36;102832.44;5059961;28;45256;-84
2022/01/20 02:26:08;;;;;;;;;18.50;12.50;;;;;8.33;66.74;102831.59;5059926;28;45215;-84
2022/01/20 02:28:33;;;;;;;;;16.50;14.00;;;;;8.30;67.14;102815.84;5059715;28;45578;-84
2022/01/20 02:30:59;;;;;;;;;15.00;13.25;;;;;8.32;67.29;102813.25;5059595;28;45393;-84
2022/01/20 02:33:27;;;;;;;;;16.75;15.25;;;;;8.31;66.81;102815.00;5059440;28;46515;-84
2022/01/20 02:35:57;;;;;;;;;12.75;12.00;;;;;8.32;66.83;102835.06;5059837;28;45414;-84
2022/01/20 02:38:44;;;;;;;;;17.25;12.00;;;;;8.31;66.82;102825.47;5059450;28;45455;-84
2022/01/20 02:46:39;;;;;;;;;15.25;11.75;;;;;8.19;66.53;102831.47;5059398;28;45450;-83
2022/01/20 02:49:07;;;;;;;;;13.75;12.75;;;;;8.21;66.39;102823.59;5059639;28;45228;-84
2022/01/20 02:51:33;;;;;;;;;14.00;13.75;;;;;8.19;66.56;102823.59;5059512;28;45322;-84
2022/01/20 02:53:59;;;;;;;;;15.00;12.50;;;;;8.17;65.78;102819.19;5058318;28;46358;-85
2022/01/20 02:56:25;;;;;;;;;15.75;12.75;;;;;8.15;66.32;102821.78;5059044;28;45365;-86
2022/01/20 02:58:50;;;;;;;;;14.00;10.25;;;;;8.10;65.81;102808.63;5059683;28;45433;-85
2022/01/20 03:01:15;;;;;;;;;9.25;7.00;;;;;8.09;65.86;102806.91;5059592;28;45440;-85
2022/01/20 03:03:41;;;;;;;;;15.00;13.50;;;;;8.10;66.09;102808.63;5059285;28;45539;-85
2022/01/20 03:06:07;;;;;;;;;12.00;10.50;;;;;8.05;66.09;102809.47;5057948;28;45300;-83
2022/01/20 03:08:34;;;;;;;;;11.50;10.00;;;;;8.05;65.97;102809.47;5059008;28;45162;-79
2022/01/20 03:10:59;;;;;;;;;10.25;7.25;;;;;8.02;66.16;102815.56;5058771;28;45210;-79
2022/01/20 03:13:24;;;;;;;;;11.00;7.75;;;;;8.04;66.26;102810.31;5061769;28;46096;-81
2022/01/20 03:15:51;;;;;;;;;9.25;8.50;;;;;8.04;65.79;102820.81;5059087;28;45402;-81
2022/01/20 03:18:16;;;;;;;;;11.50;10.25;;;;;8.03;66.01;102817.28;5058545;28;45802;-81
2022/01/20 03:20:41;;;;;;;;;10.00;8.75;;;;;8.03;65.60;102827.78;5059110;28;45137;-81
2022/01/20 03:23:07;;;;;;;;;13.75;10.00;;;;;8.02;66.26;102835.63;5057845;28;47284;-82
2022/01/20 03:25:32;;;;;;;;;10.00;7.00;;;;;8.01;65.70;102829.50;5057436;28;45325;-82
2022/01/20 03:27:58;;;;;;;;;12.25;10.75;;;;;7.98;65.54;102834.69;5059118;28;45774;-81
2022/01/20 03:30:25;;;;;;;;;13.75;11.75;;;;;7.96;65.24;102842.53;5058664;28;45457;-82
2022/01/20 03:32:51;;;;;;;;;10.50;8.75;;;;;7.95;65.45;102847.78;5058892;28;45478;-82
2022/01/20 03:35:17;;;;;;;;;10.50;8.50;;;;;7.90;65.31;102842.47;5058872;28;45405;-83
2022/01/20 03:37:42;;;;;;;;;9.25;7.25;;;;;7.87;65.66;102851.19;5060271;28;45216;-83
2022/01/20 03:40:08;;;;;;;;;11.75;8.50;;;;;7.82;64.93;102855.47;5062509;28;45313;-82
2022/01/20 03:42:34;;;;;;;;;11.50;8.00;;;;;7.82;64.97;102857.19;5062037;28;45349;-82
2022/01/20 03:45:00;;;;;;;;;10.25;8.00;;;;;7.81;65.42;102858.94;5061719;28;45231;-81
2022/01/20 03:47:26;;;;;;;;;8.50;8.00;;;;;7.79;65.37;102860.66;5062283;28;45231;-80
2022/01/20 03:50:06;;;;;;;;;10.25;6.25;;;;;7.78;64.90;102851.03;5062178;28;45474;-80
2022/01/20 03:52:32;;;;;;;;;12.00;10.25;;;;;7.76;65.10;102835.31;5062387;28;46195;-80
2022/01/20 03:54:58;;;;;;;;;6.75;6.50;;;;;7.76;65.25;102850.13;5062109;28;45276;-80
2022/01/20 03:57:23;;;;;;;;;8.25;5.50;;;;;7.76;65.48;102860.59;5062085;28;45707;-81
2022/01/20 03:59:49;;;;;;;;;7.50;7.50;;;;;7.70;65.20;102855.31;5062236;28;45460;-81
2022/01/20 04:02:14;;;;;;;;;6.75;6.75;;;;;7.70;65.22;102856.19;5062187;28;46272;-81
2022/01/20 04:04:40;;;;;;;;;8.50;6.00;;;;;7.68;65.02;102852.66;5062028;28;45281;-81
2022/01/20 04:07:05;;;;;;;;;11.25;5.00;;;;;7.64;65.64;102850.84;5061754;28;45279;-81
2022/01/20 04:09:31;;;;;;;;;10.00;7.00;;;;;7.61;65.14;102859.53;5062191;28;45642;-82
2022/01/20 04:11:56;;;;;;;;;8.25;6.75;;;;;7.57;64.92;102856.88;5057933;28;45521;-82
2022/01/20 04:14:24;;;;;;;;;7.25;7.25;;;;;7.53;65.24;102863.81;5054061;28;45419;-82
2022/01/20 04:19:24;;;;;;;;;8.00;6.00;;;;;7.51;65.20;102882.09;5061555;28;45488;-81
2022/01/20 04:21:50;;;;;;;;;9.00;5.50;;;;;7.47;64.63;102876.78;5061685;28;46259;-81
2022/01/20 04:24:16;;;;;;;;;4.25;3.25;;;;;7.45;65.43;102878.50;5061705;28;45291;-81
2022/01/20 04:26:44;;;;;;;;;9.25;5.75;;;;;7.45;65.12;102892.47;5057756;28;45394;-81
2022/01/20 04:29:11;;;;;;;;;7.50;5.75;;;;;7.40;65.41;102879.34;5061565;28;45424;-81
2022/01/20 04:31:38;;;;;;;;;7.00;7.00;;;;;7.39;65.15;102884.53;5061315;28;46161;-80
2022/01/20 04:34:05;;;;;;;;;6.00;5.50;;;;;7.34;65.22;102876.59;5060992;28;45914;-80
2022/01/20 04:36:33;;;;;;;;;6.75;6.50;;;;;7.34;65.06;102879.22;5061861;28;45404;-80
2022/01/20 04:39:00;;;;;;;;;10.00;7.00;;;;;7.29;65.24;102876.53;5061634;28;45292;-80
2022/01/20 04:41:29;;;;;;;;;9.25;7.25;;;;;7.27;64.81;102882.59;5061646;28;45212;-80
2022/01/20 04:43:54;;;;;;;;;10.75;9.50;;;;;7.23;65.30;102878.19;5061111;28;45445;-80
2022/01/20 04:46:30;;;;;;;;;9.75;7.50;;;;;7.21;65.53;102883.38;5061338;28;45236;-80
2022/01/20 04:59:36;;;;;;;;;9.75;9.75;;;;;7.11;65.58;102890.22;5061258;28;45339;-84
2022/01/20 05:02:02;;;;;;;;;11.00;9.25;;;;;7.10;65.43;102896.28;5060318;28;45421;-82
2022/01/20 05:04:27;;;;;;;;;9.00;7.75;;;;;7.08;65.32;102892.78;5060932;28;45260;-82
2022/01/20 05:06:55;;;;;;;;;7.75;7.75;;;;;7.09;65.17;102889.28;5061338;28;45227;-83
2022/01/20 05:09:22;;;;;;;;;8.75;5.75;;;;;7.07;65.79;102875.31;5061200;28;45349;-83
2022/01/20 05:11:57;;;;;;;;;7.25;6.00;;;;;7.06;64.92;102882.28;5060351;28;45470;-82
2022/01/20 05:14:22;;;;;;;;;6.25;5.25;;;;;7.05;65.27;102871.78;5061070;28;45464;-82
2022/01/20 05:16:48;;;;;;;;;10.25;7.00;;;;;7.07;64.89;102883.16;5061218;28;45477;-81
2022/01/20 05:19:13;;;;;;;;;13.25;7.00;;;;;7.05;64.68;102883.16;5060449;28;45556;-79
2022/01/20 05:21:39;;;;;;;;;8.50;5.00;;;;;7.05;65.34;102885.75;5060853;28;45373;-81
2022/01/20 05:24:04;;;;;;;;;6.00;6.00;;;;;7.05;65.07;102877.03;5060653;28;45495;-81
2022/01/20 05:26:30;;;;;;;;;7.00;4.75;;;;;7.04;64.48;102883.09;5061161;28;45266;-81
2022/01/20 05:28:55;;;;;;;;;6.00;4.00;;;;;7.02;64.80;102883.09;5060543;28;45416;-81
2022/01/20 05:31:20;;;;;;;;;6.25;6.25;;;;;7.05;64.65;102882.25;5060388;28;45412;-79
2022/01/20 05:33:46;;;;;;;;;9.50;5.75;;;;;7.04;64.50;102886.59;5060283;28;45417;-78
2022/01/20 05:36:11;;;;;;;;;5.50;4.50;;;;;7.10;64.83;102893.69;5060475;28;45362;-84
2022/01/20 05:38:37;;;;;;;;;6.75;3.75;;;;;7.08;65.00;102890.16;5060732;28;45417;-82
2022/01/20 05:41:02;;;;;;;;;8.25;6.25;;;;;7.11;65.00;102903.28;5060469;28;45286;-84
2022/01/20 05:43:27;;;;;;;;;14.25;8.25;;;;;7.12;64.69;102901.53;5060573;28;45261;-82
2022/01/20 05:45:53;;;;;;;;;8.50;6.50;;;;;7.12;64.70;102910.28;5060841;28;45267;-80
2022/01/20 05:48:31;;;;;;;;;7.50;6.00;;;;;7.12;64.46;102914.63;5059286;28;45390;-81
2022/01/20 05:50:56;;;;;;;;;6.75;4.50;;;;;7.12;65.12;102918.13;5059852;28;46337;-83
2022/01/20 05:53:22;;;;;;;;;9.25;6.00;;;;;7.12;64.48;102918.13;5060457;28;45470;-84
2022/01/20 05:55:47;;;;;;;;;6.00;4.50;;;;;7.11;64.25;102912.88;5060541;28;45456;-83
2022/01/20 05:58:13;;;;;;;;;9.75;4.25;;;;;7.12;64.20;102922.47;5060393;28;45371;-82
2022/01/20 06:00:38;;;;;;;;;5.50;5.50;;;;;7.13;64.25;102922.50;5059222;28;45485;-84
2022/01/20 06:05:49;;;;;;;;;7.50;5.25;;;;;7.12;64.08;102927.69;5060341;28;45285;-79
2022/01/20 06:08:14;;;;;;;;;5.00;4.00;;;;;7.14;64.48;102934.72;5060357;28;45526;-80
2022/01/20 06:10:40;;;;;;;;;7.25;6.00;;;;;7.13;64.63;102940.81;5059960;28;45429;-80
2022/01/20 06:13:05;;;;;;;;;6.00;4.75;;;;;7.13;64.85;102932.09;5059799;28;45331;-80
2022/01/20 06:15:31;;;;;;;;;3.00;3.00;;;;;7.12;64.50;102938.16;5060010;28;45413;-80
2022/01/20 06:17:57;;;;;;;;;6.75;5.25;;;;;7.10;64.48;102930.28;5057424;28;45669;-80
2022/01/20 06:20:22;;;;;;;;;20.25;17.25;;;;;7.08;64.65;102935.50;5058173;28;45443;-80
2022/01/20 06:22:48;;;;;;;;;18.25;16.25;;;;;7.02;64.93;102931.88;5052758;28;45387;-81
2022/01/20 06:25:13;;;;;;;;;47.25;38.00;;;;;7.03;64.46;102933.66;5044754;28;45284;-80
2022/01/20 06:27:38;;;;;;;;;25.25;20.50;;;;;7.00;64.86;102937.09;5047989;28;45335;-80
2022/01/20 06:30:05;;;;;;;;;12.50;11.75;;;;;7.00;64.67;102942.31;5057683;28;46454;-80
2022/01/20 06:32:31;;;;;;;;;13.50;12.75;;;;;7.00;65.19;102944.06;5047866;28;45919;-81
2022/01/20 06:34:57;;;;;;;;;15.50;14.50;;;;;7.00;64.88;102944.06;5054219;28;46015;-82
2022/01/20 06:37:22;;;;;;;;;13.75;11.75;;;;;7.00;64.64;102944.06;5058026;28;45443;-82
2022/01/20 06:39:48;;;;;;;;;19.00;14.50;;;;;6.96;64.50;102938.75;5047714;28;45572;-82
2022/01/20 06:42:13;;;;;;;;;13.25;11.00;;;;;6.95;64.58;102947.47;5053003;28;45414;-81
2022/01/20 06:44:39;;;;;;;;;18.00;15.50;;;;;6.95;64.92;102954.44;5048058;28;45430;-80
2022/01/20 06:47:04;;;;;;;;;24.50;21.00;;;;;6.90;65.28;102956.97;5048041;28;45378;-80
2022/01/20 06:49:29;;;;;;;;;13.00;9.00;;;;;6.87;64.93;102954.28;5052548;28;45469;-80
2022/01/20 06:51:55;;;;;;;;;23.75;19.25;;;;;6.84;64.85;102952.50;5048413;28;45618;-80
2022/01/20 06:54:20;;;;;;;;;20.25;15.50;;;;;6.83;65.30;102960.31;5059040;28;45386;-79
2022/01/20 06:56:46;;;;;;;;;19.75;18.00;;;;;6.81;64.99;102964.66;5059272;28;45330;-79
2022/01/20 06:59:17;;;;;;;;;33.25;24.25;;;;;6.85;65.13;102971.69;5058874;28;45417;-79
2022/01/20 07:01:44;;;;;;;;;20.00;18.00;;;;;6.81;64.70;102980.31;5059291;28;45411;-79
2022/01/20 07:04:10;;;;;;;;;11.00;8.75;;;;;6.79;64.59;102979.41;5058008;28;45387;-79
2022/01/20 07:06:36;;;;;;;;;16.00;11.75;;;;;6.81;65.21;102990.78;5059083;28;45398;-79
2022/01/20 07:09:03;;;;;;;;;17.00;12.00;;;;;6.79;64.90;102984.66;5059329;28;45492;-79
2022/01/20 07:11:31;;;;;;;;;40.25;31.75;;;;;6.83;64.92;103002.16;5058864;28;45347;-79
2022/01/20 07:13:57;;;;;;;;;21.00;16.00;;;;;6.82;65.35;103010.81;5061433;28;45402;-79
2022/01/20 07:16:22;;;;;;;;;14.25;11.25;;;;;6.79;65.15;103022.09;5060787;28;45465;-79
2022/01/20 07:18:50;;;;;;;;;11.25;6.50;;;;;6.79;64.73;103022.09;5062658;28;46115;-79
2022/01/20 07:21:16;;;;;;;;;15.75;11.25;;;;;6.79;64.63;103026.47;5062655;28;45251;-79
2022/01/20 07:23:41;;;;;;;;;12.25;9.25;;;;;6.75;65.13;103023.78;5062525;28;45327;-79
2022/01/20 07:26:06;;;;;;;;;17.25;13.25;;;;;6.78;64.62;103035.16;5062610;28;45403;-79
2022/01/20 07:28:32;;;;;;;;;21.00;15.50;;;;;6.74;64.70;103035.09;5062767;28;45490;-79
2022/01/20 07:30:57;;;;;;;;;7.25;7.25;;;;;6.76;65.11;103040.38;5062674;28;45248;-79
2022/01/20 07:33:23;;;;;;;;;13.00;7.50;;;;;6.75;65.22;103049.94;5059759;28;45375;-79
2022/01/20 07:35:48;;;;;;;;;18.00;14.75;;;;;6.77;65.17;103055.19;5062412;28;45227;-78
2022/01/20 07:38:13;;;;;;;;;19.25;15.75;;;;;6.74;64.64;103050.75;5062470;28;46216;-78
2022/01/20 07:40:39;;;;;;;;;20.75;12.25;;;;;6.72;64.88;103052.47;5062290;28;45474;-78
2022/01/20 07:43:04;;;;;;;;;21.50;16.25;;;;;6.72;65.33;103051.59;5061732;28;45408;-78
2022/01/20 07:45:30;;;;;;;;;43.25;33.00;;;;;6.74;65.41;103053.38;5060956;28;45607;-78
2022/01/20 07:47:55;;;;;;;;;44.50;31.75;;;;;6.76;65.22;103063.88;5062238;28;45595;-78
2022/01/20 07:50:21;;;;;;;;;15.50;11.50;;;;;6.75;65.13;103044.69;5061517;28;45164;-81
2022/01/20 07:52:47;;;;;;;;;33.50;19.50;;;;;6.79;65.14;103040.41;5060590;28;45303;-78
2022/01/20 07:55:13;;;;;;;;;24.00;18.25;;;;;6.79;65.42;103043.00;5061361;28;45485;-78
2022/01/20 07:57:38;;;;;;;;;13.00;9.25;;;;;6.85;65.57;103042.25;5061986;28;46397;-78
2022/01/20 08:00:06;;;;;;;;;60.50;44.00;;;;;6.84;65.08;103057.06;5064204;28;45500;-78
2022/01/20 08:02:32;;;;;;;;;12.75;10.25;;;;;6.88;65.49;103046.69;5074042;28;45423;-78
2022/01/20 08:04:57;;;;;;;;;21.75;15.00;;;;;6.86;64.93;103044.03;5062105;28;45421;-78
2022/01/20 08:07:23;;;;;;;;;16.00;11.50;;;;;6.88;65.53;103052.78;5061592;28;46506;-78
2022/01/20 08:09:54;;;;;;;;;20.25;14.50;;;;;6.90;65.50;103053.69;5062007;28;45222;-78
2022/01/20 08:12:19;;;;;;;;;36.00;29.75;;;;;6.95;64.99;103048.56;5062115;28;45290;-78
2022/01/20 08:14:44;;;;;;;;;26.50;19.75;;;;;7.00;65.24;103041.69;5062108;28;45404;-78
2022/01/20 08:17:10;;;;;;;;;25.75;17.25;;;;;7.03;65.43;103039.16;5061763;28;45470;-78
2022/01/20 08:19:35;;;;;;;;;33.50;28.00;;;;;7.11;65.00;103055.00;5061042;28;45428;-78
2022/01/20 08:22:01;;;;;;;;;10.50;10.50;;;;;7.14;65.87;103056.75;5061994;28;45311;-78
2022/01/20 08:24:26;;;;;;;;;29.25;24.00;;;;;7.20;65.37;103064.72;5061699;28;45331;-78
2022/01/20 08:26:52;;;;;;;;;20.25;15.00;;;;;7.25;64.97;103062.19;5061599;28;45427;-78
2022/01/20 08:29:17;;;;;;;;;18.00;16.25;;;;;7.32;65.47;103062.34;5061748;28;45130;-78
2022/01/20 08:31:43;;;;;;;;;13.00;11.25;;;;;7.36;65.37;103057.19;5061711;28;45203;-78
2022/01/20 08:34:08;;;;;;;;;17.00;11.50;;;;;7.43;65.32;103048.59;5078218;28;45191;-78
2022/01/20 08:36:34;;;;;;;;;51.75;39.00;;;;;7.46;64.87;103045.13;5062096;27;45336;-78
2022/01/20 08:38:59;;;;;;;;;19.50;16.25;;;;;7.49;65.05;103040.81;5061570;28;45291;-78
2022/01/20 08:41:24;;;;;;;;;22.00;17.50;;;;;7.54;65.25;103060.09;5061635;28;45196;-78
2022/01/20 08:43:50;;;;;;;;;15.25;14.00;;;;;7.52;65.05;103058.31;5061534;28;45196;-78
2022/01/20 08:46:19;;;;;;;;;20.25;14.25;;;;;7.57;64.76;103069.75;5061879;28;45571;-78
2022/01/20 08:48:45;;;;;;;;;15.50;15.00;;;;;7.57;64.97;103072.38;5061376;28;45323;-78
2022/01/20 08:51:10;;;;;;;;;14.50;12.50;;;;;7.58;64.56;103074.13;5061512;28;45389;-78
2022/01/20 08:53:36;;;;;;;;;16.75;13.00;;;;;7.63;64.29;103080.31;5061127;28;45516;-78
2022/01/20 08:56:02;;;;;;;;;16.00;15.50;;;;;7.68;64.36;103087.38;5061640;28;46306;-78
2022/01/20 08:58:27;;;;;;;;;15.25;12.25;;;;;7.65;63.94;103078.59;5061107;28;45358;-78
2022/01/20 09:00:53;;;;;;;;;14.50;13.50;;;;;7.72;64.59;103083.97;5061534;28;45153;-78
2022/01/20 09:03:22;;;;;;;;;15.25;12.50;;;;;7.72;64.20;103074.38;5063479;28;45925;-78
2022/01/20 09:05:48;;;;;;;;;10.75;10.75;;;;;7.75;64.05;103061.31;5060424;28;45537;-78
2022/01/20 09:08:14;;;;;;;;;18.25;15.25;;;;;7.77;63.96;103063.97;5061177;28;45335;-78
2022/01/20 09:10:42;;;;;;;;;14.00;11.75;;;;;7.81;64.34;103071.00;5061210;28;45606;-78
2022/01/20 09:15:55;;;;;;;;;15.75;13.50;;;;;7.77;63.65;103079.69;5058708;28;45258;-78
2022/01/20 09:18:22;;;;;;;;;16.00;14.75;;;;;7.79;63.82;103080.59;5060161;28;45201;-78
2022/01/20 09:20:48;;;;;;;;;16.50;14.00;;;;;7.82;64.02;103080.66;5061084;28;45433;-78
2022/01/20 09:23:14;;;;;;;;;18.75;14.00;;;;;7.85;63.78;103085.06;5060464;28;46657;-79
2022/01/20 09:25:40;;;;;;;;;21.00;16.00;;;;;7.88;64.45;103098.16;5060622;28;45354;-78
2022/01/20 09:28:06;;;;;;;;;21.50;15.75;;;;;7.91;63.96;103100.84;5060038;28;45309;-78
2022/01/20 09:30:34;;;;;;;;;17.75;16.00;;;;;7.94;64.24;103105.25;5061089;28;45411;-79
2022/01/20 09:33:26;;;;;;;;;17.00;14.25;;;;;7.94;64.03;103107.88;5062413;28;46192;-79
2022/01/20 09:35:47;;;;;;;;;18.25;12.75;;;;;7.99;63.96;103114.06;5058404;28;46143;-79
2022/01/20 09:38:13;;;;;;;;;15.25;13.25;;;;;8.02;64.06;103119.38;5059136;28;45406;-79
2022/01/20 09:40:39;;;;;;;;;20.00;15.25;;;;;8.06;64.21;103117.66;5055866;28;45640;-79
2022/01/20 09:43:06;;;;;;;;;15.25;10.25;;;;;8.08;64.03;103124.69;5058114;28;46771;-78
2022/01/20 09:45:32;;;;;;;;;22.50;18.00;;;;;8.11;63.60;103126.50;5062401;28;46430;-78
2022/01/20 09:48:00;;;;;;;;;19.50;16.00;;;;;8.13;63.68;103116.91;5059682;28;45276;-78
2022/01/20 09:50:26;;;;;;;;;26.75;20.25;;;;;8.18;64.07;103115.25;5060248;28;45237;-78
2022/01/20 09:52:59;;;;;;;;;23.75;18.75;;;;;8.20;63.48;103107.41;5059902;28;45271;-78
2022/01/20 09:55:24;;;;;;;;;23.25;16.75;;;;;8.20;63.83;103112.63;5060501;28;45269;-78
2022/01/20 09:57:50;;;;;;;;;13.00;13.00;;;;;8.25;63.88;103103.13;5058941;28;45195;-78
2022/01/20 10:00:18;;;;;;;;;20.50;17.50;;;;;8.28;63.71;103099.66;5059237;28;45712;-78
2022/01/20 10:02:54;;;;;;;;;19.00;16.00;;;;;8.30;63.43;103109.31;5051247;28;45475;-78
2022/01/20 10:05:32;;;;;;;;;14.25;14.00;;;;;8.33;63.76;103104.13;5059973;28;45401;-78
2022/01/20 10:08:04;;;;;;;;;16.75;14.50;;;;;8.35;63.84;103111.09;5060127;28;45458;-78
2022/01/20 10:10:49;;;;;;;;;13.75;11.00;;;;;8.34;63.49;103105.00;5052715;28;45387;-79
2022/01/20 10:13:18;;;;;;;;;32.00;24.75;;;;;8.35;63.55;103113.72;5059750;28;45286;-78
2022/01/20 10:16:04;;;;;;;;;14.25;10.75;;;;;8.37;63.19;103112.03;5052031;28;45291;-78
2022/01/20 10:18:32;;;;;;;;;17.00;15.75;;;;;8.38;63.16;103129.50;5050405;28;45422;-80
2022/01/20 10:21:03;;;;;;;;;22.25;16.75;;;;;8.38;63.32;103126.88;5060025;28;45269;-80
2022/01/20 10:23:37;;;;;;;;;15.00;14.50;;;;;8.45;63.24;103141.84;5055448;28;45387;-80
2022/01/20 10:26:29;;;;;;;;;16.75;11.75;;;;;8.47;62.83;103152.38;5058564;28;46416;-81
2022/01/20 10:28:57;;;;;;;;;29.75;16.75;;;;;8.51;63.75;103146.31;5053439;28;45495;-80
2022/01/20 10:31:42;;;;;;;;;15.00;13.75;;;;;8.54;63.90;103147.22;5059739;27;45283;-80
2022/01/20 10:34:18;;;;;;;;;17.00;15.25;;;;;8.56;62.24;103152.50;5056810;28;46834;-80
2022/01/20 10:36:54;;;;;;;;;14.25;13.75;;;;;8.59;62.97;103157.81;5059663;28;45444;-81
2022/01/20 10:39:37;;;;;;;;;16.00;14.00;;;;;8.61;61.88;103155.22;5057258;28;45496;-80
2022/01/20 10:42:08;;;;;;;;;22.25;18.75;;;;;8.64;62.71;103160.50;5051809;28;45390;-80
2022/01/20 10:45:00;;;;;;;;;19.25;16.00;;;;;8.70;62.63;103163.22;5046206;28;45446;-80
2022/01/20 10:47:31;;;;;;;;;16.25;16.00;;;;;8.73;62.85;103155.38;5054463;28;47079;-80
2022/01/20 10:50:10;;;;;;;;;16.50;14.50;;;;;8.75;62.65;103166.78;5059728;28;45351;-80
2022/01/20 10:52:37;;;;;;;;;18.25;16.00;;;;;8.80;62.71;103163.31;5059667;28;45446;-80
2022/01/20 10:55:06;;;;;;;;;17.75;14.25;;;;;8.84;62.44;103167.78;5059323;28;45520;-80
2022/01/20 10:57:34;;;;;;;;;16.75;14.50;;;;;8.86;61.35;103155.56;5058955;28;45400;-80
2022/01/20 11:00:10;;;;;;;;;16.75;14.50;;;;;8.87;62.33;103154.69;5059497;28;45239;-80
2022/01/20 11:02:35;;;;;;;;;16.75;14.75;;;;;8.88;62.42;103145.97;5058940;28;45221;-81
2022/01/20 11:05:01;;;;;;;;;16.50;13.00;;;;;8.89;62.48;103142.47;5059533;28;45435;-80
2022/01/20 11:07:28;;;;;;;;;17.50;13.75;;;;;8.94;61.84;103153.03;5059288;28;45933;-81
2022/01/20 11:10:05;;;;;;;;;18.25;14.25;;;;;8.96;62.32;103148.69;5059239;28;45356;-81
2022/01/20 11:12:31;;;;;;;;;13.50;13.00;;;;;8.97;61.75;103151.31;5059344;28;45418;-80
2022/01/20 11:15:00;;;;;;;;;17.00;14.25;;;;;8.96;61.58;103154.78;5059222;28;45606;-81
2022/01/20 11:17:29;;;;;;;;;16.75;15.75;;;;;8.95;61.97;103154.78;5059015;28;46278;-81
2022/01/20 11:20:08;;;;;;;;;16.50;13.00;;;;;8.97;61.29;103153.06;5058675;28;45409;-80
2022/01/20 11:22:34;;;;;;;;;15.50;11.50;;;;;8.94;61.81;103153.91;5059510;28;45161;-81
2022/01/20 11:25:08;;;;;;;;;16.25;13.50;;;;;8.87;61.23;103144.19;5058785;28;45236;-80
2022/01/20 11:27:40;;;;;;;;;19.25;15.50;;;;;8.85;61.41;103148.53;5049245;28;46372;-80
2022/01/20 11:30:17;;;;;;;;;16.75;15.00;;;;;8.85;61.91;103148.53;5058660;28;45787;-80
2022/01/20 11:32:45;;;;;;;;;16.25;11.75;;;;;8.82;61.70;103143.25;5059087;28;45300;-81
2022/01/20 11:35:13;;;;;;;;;15.25;12.25;;;;;8.81;61.32;103146.75;5059029;28;45231;-80
2022/01/20 11:37:41;;;;;;;;;14.25;11.25;;;;;8.80;61.15;103139.72;5059037;28;45374;-81
2022/01/20 11:40:16;;;;;;;;;20.50;16.25;;;;;8.84;61.86;103138.94;5058934;28;45322;-80
2022/01/20 11:42:42;;;;;;;;;15.25;9.50;;;;;8.85;61.62;103140.66;5059286;28;45438;-81
2022/01/20 11:45:25;;;;;;;;;12.00;8.25;;;;;8.85;61.61;103132.81;5058705;28;45358;-81
2022/01/20 11:47:51;;;;;;;;;10.50;9.75;;;;;8.85;61.82;103135.44;5047801;28;46512;-80
2022/01/20 11:50:19;;;;;;;;;12.25;8.00;;;;;8.89;61.28;103124.09;5058879;28;45409;-80
2022/01/20 11:52:44;;;;;;;;;15.75;12.00;;;;;8.96;60.09;103130.34;5059214;28;45298;-80
2022/01/20 11:55:14;;;;;;;;;23.50;17.75;;;;;8.99;61.10;103136.47;5057053;28;45450;-80
2022/01/20 11:57:40;;;;;;;;;18.25;15.00;;;;;8.99;60.27;103146.97;5058946;28;45524;-81
2022/01/20 12:00:35;;;;;;;;;24.25;17.75;;;;;9.04;59.48;103143.56;5061775;28;45389;-81
2022/01/20 12:03:09;;;;;;;;;12.25;10.50;;;;;9.03;60.00;103132.16;5043258;28;45378;-81
2022/01/20 12:05:35;;;;;;;;;10.00;8.50;;;;;9.04;60.05;103123.41;5062200;28;45268;-80
2022/01/20 12:08:10;;;;;;;;;6.75;5.75;;;;;9.06;60.06;103126.06;5061826;28;45478;-81
2022/01/20 12:10:36;;;;;;;;;8.25;6.75;;;;;9.13;59.83;103141.03;5062192;28;45287;-80
2022/01/20 12:13:10;;;;;;;;;10.00;8.50;;;;;9.17;59.96;103134.06;5062215;28;45334;-80
2022/01/20 12:15:50;;;;;;;;;9.00;5.75;;;;;9.21;58.37;103147.22;5062029;28;45520;-80
2022/01/20 12:18:16;;;;;;;;;15.00;8.00;;;;;9.18;58.61;103146.34;5049312;28;45393;-81
2022/01/20 12:20:42;;;;;;;;;6.00;5.25;;;;;9.16;59.10;103148.06;5061941;28;45283;-81
2022/01/20 12:23:07;;;;;;;;;5.50;5.50;;;;;9.16;59.72;103158.56;5062322;28;45253;-80
2022/01/20 12:25:35;;;;;;;;;12.00;6.25;;;;;9.15;58.49;103146.28;5057009;28;45517;-80
2022/01/20 12:28:06;;;;;;;;;5.50;4.75;;;;;9.12;58.96;103152.38;5056856;28;45366;-80
2022/01/20 12:30:33;;;;;;;;;19.00;11.75;;;;;9.15;59.04;103147.16;5049884;28;45723;-81
2022/01/20 12:33:08;;;;;;;;;7.50;7.00;;;;;9.16;57.72;103155.94;5061595;28;45463;-81
2022/01/20 12:35:50;;;;;;;;;10.00;7.25;;;;;9.13;57.84;103148.00;5061737;28;45421;-81
2022/01/20 12:38:28;;;;;;;;;6.00;5.00;;;;;9.04;56.38;103146.16;5061487;28;46521;-81